createdAt,value
2018-05-01T19:45:20.334Z,72.4
2018-05-01T19:46:10.130Z,72.4
2018-05-01T19:47:00.449Z,72.4
2018-05-01T19:47:50.291Z,72.4
2018-05-01T19:48:40.614Z,72.4
2018-05-01T19:49:29.817Z,72.4
2018-05-01T19:50:20.735Z,72.4
2018-05-01T19:51:10.420Z,72.4
2018-05-01T19:52:00.429Z,72.3
2018-05-01T19:52:50.487Z,72.3
2018-05-01T19:53:39.973Z,72.3
2018-05-01T19:54:30.577Z,72.3
2018-05-01T19:55:20.670Z,72.3
2018-05-01T19:56:10.675Z,72.3
2018-05-01T19:57:00.124Z,72.3
2018-05-01T19:57:50.865Z,72.3
2018-05-01T19:58:41.441Z,72.3
2018-05-01T19:59:31.427Z,72.3
2018-05-01T20:00:20.981Z,72.3
2018-05-01T20:01:11.589Z,72.3
2018-05-01T20:02:00.818Z,72.3
2018-05-01T20:02:51.425Z,72.3
2018-05-01T20:03:40.733Z,72.2
2018-05-01T20:04:30.717Z,72.2
2018-05-01T20:05:21.441Z,72.2
2018-05-01T20:06:11.210Z,72.2
2018-05-01T20:07:01.289Z,72.2
2018-05-01T20:07:51.821Z,72.2
2018-05-01T20:08:42.167Z,72.2
2018-05-01T20:09:31.972Z,72.1
2018-05-01T20:10:21.750Z,72.2
2018-05-01T20:11:12.367Z,72.1
2018-05-01T20:12:02.472Z,72.1
2018-05-01T20:12:51.630Z,72.1
2018-05-01T20:13:42.327Z,72.1
2018-05-01T20:14:32.658Z,72.1
2018-05-01T20:15:22.479Z,72.1
2018-05-01T20:16:12.225Z,72.1
2018-05-01T20:17:02.887Z,72.1
2018-05-01T20:17:52.913Z,72.1
2018-05-01T20:18:42.714Z,72.1
2018-05-01T20:19:47.746Z,72.1
2018-05-01T20:20:23.167Z,72.1
2018-05-01T20:21:12.124Z,72
2018-05-01T20:22:03.010Z,72
2018-05-01T20:22:53.093Z,72
2018-05-01T20:23:43.098Z,72
2018-05-01T20:24:32.933Z,72
2018-05-01T20:25:22.369Z,72
2018-05-01T20:26:13.609Z,72
2018-05-01T20:27:02.477Z,71.9
2018-05-01T20:27:52.845Z,71.9
2018-05-01T20:28:43.216Z,71.9
2018-05-01T20:29:32.471Z,71.9
2018-05-01T20:30:38.454Z,71.9
2018-05-01T20:31:13.267Z,71.9
2018-05-01T20:32:04.553Z,71.9
2018-05-01T20:32:54.280Z,71.9
2018-05-01T20:33:44.437Z,71.9
2018-05-01T20:34:33.537Z,71.9
2018-05-01T20:35:24.520Z,71.9
2018-05-01T20:36:14.222Z,71.9
2018-05-01T20:37:04.402Z,71.8
2018-05-01T20:37:55.209Z,71.8
2018-05-01T20:38:45.063Z,71.8
2018-05-01T20:39:34.816Z,71.8
2018-05-01T20:40:24.430Z,71.8
2018-05-01T20:41:14.426Z,71.8
2018-05-01T20:42:04.785Z,71.8
2018-05-01T20:42:54.579Z,71.8
2018-05-01T20:43:45.132Z,71.8
2018-05-01T20:44:35.042Z,71.8
2018-05-01T20:45:25.051Z,71.8
2018-05-01T20:46:15.329Z,71.8
2018-05-01T20:47:05.114Z,71.8
2018-05-01T20:47:55.128Z,71.8
2018-05-01T20:48:45.854Z,71.8
2018-05-01T20:49:35.260Z,71.8
2018-05-01T20:50:25.988Z,71.7
2018-05-01T20:51:15.973Z,71.7
2018-05-01T20:52:06.096Z,71.7
2018-05-01T20:52:55.633Z,71.7
2018-05-01T20:53:45.435Z,71.7
2018-05-01T20:54:35.757Z,71.7
2018-05-01T20:55:25.818Z,71.7
2018-05-01T20:56:14.723Z,71.6
2018-05-01T20:57:06.443Z,71.6
2018-05-01T20:57:56.019Z,71.6
2018-05-01T20:58:46.607Z,71.6
2018-05-01T20:59:36.358Z,71.6
2018-05-01T21:00:26.692Z,71.6
2018-05-01T21:01:16.461Z,71.6
2018-05-01T21:02:06.817Z,71.6
2018-05-01T21:02:56.618Z,71.6
2018-05-01T21:03:46.378Z,71.6
2018-05-01T21:04:36.693Z,71.6
2018-05-01T21:05:26.552Z,71.6
2018-05-01T21:06:16.887Z,71.5
2018-05-01T21:07:06.872Z,71.5
2018-05-01T21:07:57.222Z,71.6
2018-05-01T21:08:47.339Z,71.5
2018-05-01T21:09:37.424Z,71.5
2018-05-01T21:10:27.449Z,71.5
2018-05-01T21:11:17.557Z,71.5
2018-05-01T21:12:07.383Z,71.5
2018-05-01T21:12:57.083Z,71.4
2018-05-01T21:13:47.744Z,71.4
2018-05-01T21:14:37.530Z,71.4
2018-05-01T21:15:27.391Z,71.4
2018-05-01T21:16:17.328Z,71.4
2018-05-01T21:17:07.717Z,71.4
2018-05-01T21:17:58.055Z,71.4
2018-05-01T21:18:47.817Z,71.4
2018-05-01T21:19:37.841Z,71.4
2018-05-01T21:20:27.670Z,71.4
2018-05-01T21:21:17.773Z,71.4
2018-05-01T21:22:08.567Z,71.4
2018-05-01T21:22:58.163Z,71.4
2018-05-01T21:23:48.482Z,71.4
2018-05-01T21:24:38.020Z,71.4
2018-05-01T21:25:28.707Z,71.4
2018-05-01T21:26:18.429Z,71.3
2018-05-01T21:27:08.501Z,71.3
2018-05-01T21:27:58.519Z,71.3
2018-05-01T21:28:48.600Z,71.3
2018-05-01T21:29:38.915Z,71.3
2018-05-01T21:30:28.665Z,71.3
2018-05-01T21:31:19.094Z,71.3
2018-05-01T21:32:07.604Z,71.3
2018-05-01T21:32:57.631Z,71.3
2018-05-01T21:33:48.267Z,71.3
2018-05-01T21:34:38.812Z,71.3
2018-05-01T21:35:28.627Z,71.2
2018-05-01T21:36:19.040Z,71.2
2018-05-01T21:37:09.524Z,71.2
2018-05-01T21:37:58.434Z,71.2
2018-05-01T21:38:49.337Z,71.2
2018-05-01T21:39:39.705Z,71.2
2018-05-01T21:40:29.525Z,71.2
2018-05-01T21:41:19.240Z,71.2
2018-05-01T21:42:09.890Z,71.2
2018-05-01T21:43:00.283Z,71.1
2018-05-01T21:43:49.782Z,71.1
2018-05-01T21:44:39.814Z,71.1
2018-05-01T21:45:29.881Z,71.1
2018-05-01T21:46:20.347Z,71.1
2018-05-01T21:47:10.037Z,71.1
2018-05-01T21:47:59.769Z,71.1
2018-05-01T21:48:50.133Z,71.1
2018-05-01T21:49:39.882Z,71.1
2018-05-01T21:50:30.273Z,71.1
2018-05-01T21:51:20.688Z,71.1
2018-05-01T21:52:10.402Z,71.1
2018-05-01T21:53:00.244Z,71.1
2018-05-01T21:53:50.813Z,71.1
2018-05-01T21:54:40.595Z,71
2018-05-01T21:55:30.059Z,71
2018-05-01T21:56:21.002Z,71
2018-05-01T21:57:10.725Z,71
2018-05-01T21:58:01.036Z,71
2018-05-01T21:58:50.852Z,71
2018-05-01T21:59:40.697Z,70.9
2018-05-01T22:00:31.217Z,70.9
2018-05-01T22:01:21.064Z,71
2018-05-01T22:02:11.062Z,70.9
2018-05-01T22:03:01.442Z,70.9
2018-05-01T22:03:50.937Z,70.9
2018-05-01T22:04:40.731Z,70.9
2018-05-01T22:05:31.610Z,70.9
2018-05-01T22:06:21.434Z,70.9
2018-05-01T22:07:11.724Z,70.9
2018-05-01T22:08:01.256Z,70.9
2018-05-01T22:08:51.895Z,70.9
2018-05-01T22:09:41.938Z,70.9
2018-05-01T22:10:31.761Z,70.9
2018-05-01T22:11:21.506Z,70.9
2018-05-01T22:12:11.936Z,70.8
2018-05-01T22:13:01.338Z,70.8
2018-05-01T22:13:51.997Z,70.8
2018-05-01T22:14:42.323Z,70.8
2018-05-01T22:15:31.553Z,70.8
2018-05-01T22:16:22.455Z,70.8
2018-05-01T22:17:11.405Z,70.8
2018-05-01T22:18:02.587Z,70.8
2018-05-01T22:18:52.368Z,70.8
2018-05-01T22:19:42.142Z,70.8
2018-05-01T22:20:32.798Z,70.8
2018-05-01T22:21:22.311Z,70.8
2018-05-01T22:22:12.643Z,70.8
2018-05-01T22:23:02.126Z,70.8
2018-05-01T22:23:53.042Z,70.7
2018-05-01T22:24:42.547Z,70.7
2018-05-01T22:25:32.607Z,70.7
2018-05-01T22:26:23.225Z,70.7
2018-05-01T22:27:13.019Z,70.7
2018-05-01T22:28:02.809Z,70.7
2018-05-01T22:28:54.196Z,70.7
2018-05-01T22:29:43.220Z,70.7
2018-05-01T22:30:33.764Z,70.6
2018-05-01T22:31:23.638Z,70.6
2018-05-01T22:32:13.698Z,70.6
2018-05-01T22:33:03.267Z,70.6
2018-05-01T22:33:52.782Z,70.6
2018-05-01T22:34:43.620Z,70.6
2018-05-01T22:35:33.951Z,70.6
2018-05-01T22:36:23.519Z,70.6
2018-05-01T22:37:14.086Z,70.6
2018-05-01T22:38:04.106Z,70.6
2018-05-01T22:38:53.628Z,70.6
2018-05-01T22:39:44.029Z,70.6
2018-05-01T22:40:34.610Z,70.6
2018-05-01T22:41:24.374Z,70.6
2018-05-01T22:42:14.460Z,70.6
2018-05-01T22:43:04.266Z,70.5
2018-05-01T22:43:54.306Z,70.5
2018-05-01T22:44:44.372Z,70.5
2018-05-01T22:45:34.425Z,70.5
2018-05-01T22:46:24.208Z,70.5
2018-05-01T22:47:14.571Z,70.5
2018-05-01T22:48:04.336Z,70.4
2018-05-01T22:48:54.975Z,70.4
2018-05-01T22:49:45.029Z,70.4
2018-05-01T22:50:35.113Z,70.4
2018-05-01T22:51:24.407Z,70.4
2018-05-01T22:52:15.231Z,70.4
2018-05-01T22:53:05.015Z,70.4
2018-05-01T22:53:54.234Z,70.4
2018-05-01T22:54:44.840Z,70.4
2018-05-01T22:55:35.538Z,70.4
2018-05-01T22:56:25.581Z,70.4
2018-05-01T22:57:14.777Z,70.4
2018-05-01T22:58:05.435Z,70.4
2018-05-01T22:58:55.457Z,70.4
2018-05-01T22:59:45.835Z,70.4
2018-05-01T23:00:35.039Z,70.3
2018-05-01T23:01:25.945Z,70.3
2018-05-01T23:02:15.823Z,70.3
2018-05-01T23:03:06.133Z,70.3
2018-05-01T23:03:56.153Z,70.3
2018-05-01T23:04:45.733Z,70.3
2018-05-01T23:05:35.433Z,70.3
2018-05-01T23:06:26.072Z,70.3
2018-05-01T23:07:15.895Z,70.3
2018-05-01T23:08:05.925Z,70.3
2018-05-01T23:08:56.496Z,70.3
2018-05-01T23:09:46.318Z,70.3
2018-05-01T23:10:35.513Z,70.3
2018-05-01T23:11:26.443Z,70.2
2018-05-01T23:12:16.818Z,70.3
2018-05-01T23:13:06.345Z,70.2
2018-05-01T23:13:56.710Z,70.2
2018-05-01T23:14:47.063Z,70.2
2018-05-01T23:15:37.088Z,70.2
2018-05-01T23:16:26.860Z,70.2
2018-05-01T23:17:16.912Z,70.1
2018-05-01T23:18:06.385Z,70.1
2018-05-01T23:18:56.767Z,70.1
2018-05-01T23:19:46.573Z,70.1
2018-05-01T23:20:37.147Z,70.1
2018-05-01T23:21:27.223Z,70.1
2018-05-01T23:22:17.565Z,70.1
2018-05-01T23:23:06.777Z,70.1
2018-05-01T23:23:57.395Z,70.1
2018-05-01T23:24:47.449Z,70.1
2018-05-01T23:25:37.875Z,70.1
2018-05-01T23:26:27.899Z,70.1
2018-05-01T23:27:17.919Z,70.1
2018-05-01T23:28:07.172Z,70.1
2018-05-01T23:28:58.035Z,70.1
2018-05-01T23:29:48.233Z,70.1
2018-05-01T23:30:37.954Z,70
2018-05-01T23:31:28.059Z,70
2018-05-01T23:32:18.315Z,70
2018-05-01T23:33:08.261Z,70
2018-05-01T23:33:58.184Z,70
2018-05-01T23:34:48.558Z,70
2018-05-01T23:35:38.585Z,70
2018-05-01T23:36:28.108Z,69.9
2018-05-01T23:37:18.144Z,69.9
2018-05-01T23:38:08.516Z,69.9
2018-05-01T23:38:58.615Z,69.9
2018-05-01T23:39:48.641Z,69.9
2018-05-01T23:40:39.014Z,69.9
2018-05-01T23:41:28.218Z,69.9
2018-05-01T23:42:18.536Z,69.9
2018-05-01T23:43:08.908Z,69.9
2018-05-01T23:43:58.402Z,69.9
2018-05-01T23:44:48.496Z,69.9
2018-05-01T23:45:39.376Z,69.9
2018-05-01T23:46:28.861Z,69.9
2018-05-01T23:47:19.552Z,69.9
2018-05-01T23:48:08.743Z,69.8
2018-05-01T23:48:59.650Z,69.8
2018-05-01T23:49:49.180Z,69.8
2018-05-01T23:50:39.478Z,69.8
2018-05-01T23:51:29.104Z,69.8
2018-05-01T23:52:19.931Z,69.8
2018-05-01T23:53:09.363Z,69.8
2018-05-01T23:54:00.030Z,69.8
2018-05-01T23:54:49.889Z,69.8
2018-05-01T23:55:39.905Z,69.8
2018-05-01T23:56:29.942Z,69.8
2018-05-01T23:57:19.506Z,69.8
2018-05-01T23:58:09.598Z,69.8
2018-05-01T23:58:59.572Z,69.8
2018-05-01T23:59:50.519Z,69.8
